sensor_id;sensor_type;location;lat;lon;timestamp;temperature;humidity
27016;DHT22;14557;0.000;0.000;2024-02-23T00:02:15;21.80;50.80
27016;DHT22;14557;0.000;0.000;2024-02-23T00:04:41;21.80;50.80
27016;DHT22;14557;0.000;0.000;2024-02-23T00:07:07;21.80;50.70
27016;DHT22;14557;0.000;0.000;2024-02-23T00:09:33;21.80;50.70
27016;DHT22;14557;0.000;0.000;2024-02-23T00:11:59;21.70;50.70
27016;DHT22;14557;0.000;0.000;2024-02-23T00:14:24;21.80;50.70
27016;DHT22;14557;0.000;0.000;2024-02-23T00:16:50;21.70;50.60
27016;DHT22;14557;0.000;0.000;2024-02-23T00:19:15;21.70;50.80
27016;DHT22;14557;0.000;0.000;2024-02-23T00:21:43;21.70;50.90
27016;DHT22;14557;0.000;0.000;2024-02-23T00:24:13;21.70;50.70
27016;DHT22;14557;0.000;0.000;2024-02-23T00:26:38;21.60;50.50
27016;DHT22;14557;0.000;0.000;2024-02-23T00:29:04;21.60;50.70
27016;DHT22;14557;0.000;0.000;2024-02-23T00:31:29;21.60;50.80
27016;DHT22;14557;0.000;0.000;2024-02-23T00:33:55;21.60;50.50
27016;DHT22;14557;0.000;0.000;2024-02-23T00:36:21;21.50;50.70
27016;DHT22;14557;0.000;0.000;2024-02-23T00:38:46;21.50;50.40
27016;DHT22;14557;0.000;0.000;2024-02-23T00:41:12;21.50;50.50
27016;DHT22;14557;0.000;0.000;2024-02-23T00:43:38;21.50;50.50
27016;DHT22;14557;0.000;0.000;2024-02-23T00:46:04;21.50;50.50
27016;DHT22;14557;0.000;0.000;2024-02-23T00:48:30;21.40;50.50
27016;DHT22;14557;0.000;0.000;2024-02-23T00:50:55;21.40;50.50
27016;DHT22;14557;0.000;0.000;2024-02-23T00:53:21;21.40;50.30
27016;DHT22;14557;0.000;0.000;2024-02-23T00:55:47;21.40;50.50
27016;DHT22;14557;0.000;0.000;2024-02-23T00:58:12;21.30;50.40
27016;DHT22;14557;0.000;0.000;2024-02-23T01:00:38;21.30;50.60
27016;DHT22;14557;0.000;0.000;2024-02-23T01:03:04;21.30;50.50
27016;DHT22;14557;0.000;0.000;2024-02-23T01:05:30;21.30;50.60
27016;DHT22;14557;0.000;0.000;2024-02-23T01:07:56;21.30;50.50
27016;DHT22;14557;0.000;0.000;2024-02-23T01:10:22;21.20;50.40
27016;DHT22;14557;0.000;0.000;2024-02-23T01:12:47;21.20;50.40
27016;DHT22;14557;0.000;0.000;2024-02-23T01:15:13;21.20;50.60
27016;DHT22;14557;0.000;0.000;2024-02-23T01:17:38;21.20;50.60
27016;DHT22;14557;0.000;0.000;2024-02-23T01:20:04;21.10;50.50
27016;DHT22;14557;0.000;0.000;2024-02-23T01:22:30;21.10;50.50
27016;DHT22;14557;0.000;0.000;2024-02-23T01:24:56;21.10;50.40
27016;DHT22;14557;0.000;0.000;2024-02-23T01:27:21;21.10;50.50
27016;DHT22;14557;0.000;0.000;2024-02-23T01:29:47;21.10;50.30
27016;DHT22;14557;0.000;0.000;2024-02-23T01:32:13;21.00;50.40
27016;DHT22;14557;0.000;0.000;2024-02-23T01:34:38;21.00;50.50
27016;DHT22;14557;0.000;0.000;2024-02-23T01:37:04;21.00;50.50
27016;DHT22;14557;0.000;0.000;2024-02-23T01:39:30;21.00;50.50
27016;DHT22;14557;0.000;0.000;2024-02-23T01:41:55;21.00;50.40
27016;DHT22;14557;0.000;0.000;2024-02-23T01:44:21;21.00;50.60
27016;DHT22;14557;0.000;0.000;2024-02-23T01:46:47;21.00;50.60
27016;DHT22;14557;0.000;0.000;2024-02-23T01:49:13;20.90;50.60
27016;DHT22;14557;0.000;0.000;2024-02-23T01:51:39;20.90;50.70
27016;DHT22;14557;0.000;0.000;2024-02-23T01:54:05;20.90;50.60
27016;DHT22;14557;0.000;0.000;2024-02-23T01:56:31;20.90;50.60
27016;DHT22;14557;0.000;0.000;2024-02-23T01:58:57;20.90;50.70
27016;DHT22;14557;0.000;0.000;2024-02-23T02:01:23;20.80;50.60
27016;DHT22;14557;0.000;0.000;2024-02-23T02:03:50;20.80;50.50
27016;DHT22;14557;0.000;0.000;2024-02-23T02:06:15;20.80;50.70
27016;DHT22;14557;0.000;0.000;2024-02-23T02:08:41;20.80;50.90
27016;DHT22;14557;0.000;0.000;2024-02-23T02:11:07;20.80;50.80
27016;DHT22;14557;0.000;0.000;2024-02-23T02:13:32;20.80;50.90
27016;DHT22;14557;0.000;0.000;2024-02-23T02:15:59;20.70;50.90
27016;DHT22;14557;0.000;0.000;2024-02-23T02:18:25;20.70;50.90
27016;DHT22;14557;0.000;0.000;2024-02-23T02:20:52;20.70;51.00
27016;DHT22;14557;0.000;0.000;2024-02-23T02:23:18;20.70;51.00
27016;DHT22;14557;0.000;0.000;2024-02-23T02:25:44;20.70;51.20
27016;DHT22;14557;0.000;0.000;2024-02-23T02:28:10;20.70;51.10
27016;DHT22;14557;0.000;0.000;2024-02-23T02:30:35;20.60;51.10
27016;DHT22;14557;0.000;0.000;2024-02-23T02:33:01;20.60;51.20
27016;DHT22;14557;0.000;0.000;2024-02-23T02:35:27;20.60;51.20
27016;DHT22;14557;0.000;0.000;2024-02-23T02:37:52;20.60;51.40
27016;DHT22;14557;0.000;0.000;2024-02-23T02:40:18;20.60;51.40
27016;DHT22;14557;0.000;0.000;2024-02-23T02:42:43;20.60;51.40
27016;DHT22;14557;0.000;0.000;2024-02-23T02:45:09;20.60;51.30
27016;DHT22;14557;0.000;0.000;2024-02-23T02:47:35;20.50;51.10
27016;DHT22;14557;0.000;0.000;2024-02-23T02:50:01;20.60;51.40
27016;DHT22;14557;0.000;0.000;2024-02-23T02:52:27;20.50;51.40
27016;DHT22;14557;0.000;0.000;2024-02-23T02:54:53;20.50;51.80
27016;DHT22;14557;0.000;0.000;2024-02-23T02:57:19;20.50;52.50
27016;DHT22;14557;0.000;0.000;2024-02-23T02:59:45;20.50;52.30
27016;DHT22;14557;0.000;0.000;2024-02-23T03:02:11;20.50;51.90
27016;DHT22;14557;0.000;0.000;2024-02-23T03:04:37;20.50;51.70
27016;DHT22;14557;0.000;0.000;2024-02-23T03:07:03;20.40;51.70
27016;DHT22;14557;0.000;0.000;2024-02-23T03:09:28;20.40;52.60
27016;DHT22;14557;0.000;0.000;2024-02-23T03:11:54;20.40;52.70
27016;DHT22;14557;0.000;0.000;2024-02-23T03:14:21;20.40;52.90
27016;DHT22;14557;0.000;0.000;2024-02-23T03:16:48;20.40;52.80
27016;DHT22;14557;0.000;0.000;2024-02-23T03:19:14;20.40;52.70
27016;DHT22;14557;0.000;0.000;2024-02-23T03:21:40;20.40;53.70
27016;DHT22;14557;0.000;0.000;2024-02-23T03:24:06;20.40;54.20
27016;DHT22;14557;0.000;0.000;2024-02-23T03:26:32;20.40;54.10
27016;DHT22;14557;0.000;0.000;2024-02-23T03:28:57;20.40;53.40
27016;DHT22;14557;0.000;0.000;2024-02-23T03:31:23;20.40;52.90
27016;DHT22;14557;0.000;0.000;2024-02-23T03:33:48;20.40;53.10
27016;DHT22;14557;0.000;0.000;2024-02-23T03:36:14;20.30;53.10
27016;DHT22;14557;0.000;0.000;2024-02-23T03:38:39;20.40;53.40
27016;DHT22;14557;0.000;0.000;2024-02-23T03:41:05;20.30;53.50
27016;DHT22;14557;0.000;0.000;2024-02-23T03:43:31;20.30;53.30
27016;DHT22;14557;0.000;0.000;2024-02-23T03:45:57;20.30;53.40
27016;DHT22;14557;0.000;0.000;2024-02-23T03:48:23;20.30;53.20
27016;DHT22;14557;0.000;0.000;2024-02-23T03:50:48;20.30;53.40
27016;DHT22;14557;0.000;0.000;2024-02-23T03:53:14;20.30;53.20
27016;DHT22;14557;0.000;0.000;2024-02-23T03:55:40;20.30;53.00
27016;DHT22;14557;0.000;0.000;2024-02-23T03:58:06;20.30;53.20
27016;DHT22;14557;0.000;0.000;2024-02-23T04:00:31;20.20;53.20
27016;DHT22;14557;0.000;0.000;2024-02-23T04:02:57;20.20;53.10
27016;DHT22;14557;0.000;0.000;2024-02-23T04:05:23;20.20;53.00
27016;DHT22;14557;0.000;0.000;2024-02-23T04:07:48;20.20;53.20
27016;DHT22;14557;0.000;0.000;2024-02-23T04:10:14;20.20;53.30
27016;DHT22;14557;0.000;0.000;2024-02-23T04:12:42;20.20;53.20
27016;DHT22;14557;0.000;0.000;2024-02-23T04:15:08;20.20;53.20
27016;DHT22;14557;0.000;0.000;2024-02-23T04:17:34;20.20;53.40
27016;DHT22;14557;0.000;0.000;2024-02-23T04:20:00;20.20;53.20
27016;DHT22;14557;0.000;0.000;2024-02-23T04:22:30;20.20;53.30
27016;DHT22;14557;0.000;0.000;2024-02-23T04:24:56;20.10;53.10
27016;DHT22;14557;0.000;0.000;2024-02-23T04:27:21;20.10;53.20
27016;DHT22;14557;0.000;0.000;2024-02-23T04:29:47;20.10;53.10
27016;DHT22;14557;0.000;0.000;2024-02-23T04:32:12;20.10;53.30
27016;DHT22;14557;0.000;0.000;2024-02-23T04:34:38;20.10;53.10
27016;DHT22;14557;0.000;0.000;2024-02-23T04:37:05;20.10;53.30
27016;DHT22;14557;0.000;0.000;2024-02-23T04:39:31;20.00;53.20
27016;DHT22;14557;0.000;0.000;2024-02-23T04:41:56;20.10;53.10
27016;DHT22;14557;0.000;0.000;2024-02-23T04:44:22;20.00;53.20
27016;DHT22;14557;0.000;0.000;2024-02-23T04:46:48;20.00;53.30
27016;DHT22;14557;0.000;0.000;2024-02-23T04:49:13;20.00;53.20
27016;DHT22;14557;0.000;0.000;2024-02-23T04:51:39;20.00;53.10
27016;DHT22;14557;0.000;0.000;2024-02-23T04:54:05;20.10;53.20
27016;DHT22;14557;0.000;0.000;2024-02-23T04:56:31;20.00;53.10
27016;DHT22;14557;0.000;0.000;2024-02-23T04:58:57;20.00;52.90
27016;DHT22;14557;0.000;0.000;2024-02-23T05:01:22;20.00;53.10
27016;DHT22;14557;0.000;0.000;2024-02-23T05:03:49;20.00;53.20
27016;DHT22;14557;0.000;0.000;2024-02-23T05:06:14;20.00;53.10
27016;DHT22;14557;0.000;0.000;2024-02-23T05:08:40;20.00;53.10
27016;DHT22;14557;0.000;0.000;2024-02-23T05:11:06;19.90;53.10
27016;DHT22;14557;0.000;0.000;2024-02-23T05:13:31;19.90;53.10
27016;DHT22;14557;0.000;0.000;2024-02-23T05:15:57;19.90;53.20
27016;DHT22;14557;0.000;0.000;2024-02-23T05:18:23;19.90;53.20
27016;DHT22;14557;0.000;0.000;2024-02-23T05:20:48;19.90;53.20
27016;DHT22;14557;0.000;0.000;2024-02-23T05:23:14;19.90;53.20
27016;DHT22;14557;0.000;0.000;2024-02-23T05:25:41;19.90;53.20
27016;DHT22;14557;0.000;0.000;2024-02-23T05:28:07;19.90;53.20
27016;DHT22;14557;0.000;0.000;2024-02-23T05:30:32;19.80;53.10
27016;DHT22;14557;0.000;0.000;2024-02-23T05:32:58;19.80;53.00
27016;DHT22;14557;0.000;0.000;2024-02-23T05:35:24;20.00;53.20
27016;DHT22;14557;0.000;0.000;2024-02-23T05:37:50;19.80;53.20
27016;DHT22;14557;0.000;0.000;2024-02-23T05:40:15;19.80;53.30
27016;DHT22;14557;0.000;0.000;2024-02-23T05:42:41;19.80;53.20
27016;DHT22;14557;0.000;0.000;2024-02-23T05:45:07;19.80;53.20
27016;DHT22;14557;0.000;0.000;2024-02-23T05:47:37;19.80;53.20
27016;DHT22;14557;0.000;0.000;2024-02-23T05:50:03;19.80;53.30
27016;DHT22;14557;0.000;0.000;2024-02-23T05:52:30;19.80;53.40
27016;DHT22;14557;0.000;0.000;2024-02-23T05:54:56;19.80;53.40
27016;DHT22;14557;0.000;0.000;2024-02-23T05:57:22;19.70;53.20
27016;DHT22;14557;0.000;0.000;2024-02-23T05:59:47;19.70;53.30
27016;DHT22;14557;0.000;0.000;2024-02-23T06:02:13;19.70;53.90
27016;DHT22;14557;0.000;0.000;2024-02-23T06:04:40;19.70;53.40
27016;DHT22;14557;0.000;0.000;2024-02-23T06:07:05;19.70;53.20
27016;DHT22;14557;0.000;0.000;2024-02-23T06:09:31;19.70;53.90
27016;DHT22;14557;0.000;0.000;2024-02-23T06:11:57;19.60;53.40
27016;DHT22;14557;0.000;0.000;2024-02-23T06:14:22;19.60;53.20
27016;DHT22;14557;0.000;0.000;2024-02-23T06:16:49;19.60;53.10
27016;DHT22;14557;0.000;0.000;2024-02-23T06:19:14;19.60;53.30
27016;DHT22;14557;0.000;0.000;2024-02-23T06:21:40;19.60;53.40
27016;DHT22;14557;0.000;0.000;2024-02-23T06:24:06;19.60;53.30
27016;DHT22;14557;0.000;0.000;2024-02-23T06:26:34;19.60;53.40
27016;DHT22;14557;0.000;0.000;2024-02-23T06:29:00;19.60;53.30
27016;DHT22;14557;0.000;0.000;2024-02-23T06:31:25;19.60;53.40
27016;DHT22;14557;0.000;0.000;2024-02-23T06:33:51;19.60;53.30
27016;DHT22;14557;0.000;0.000;2024-02-23T06:36:17;19.60;53.20
27016;DHT22;14557;0.000;0.000;2024-02-23T06:38:44;19.50;53.20
27016;DHT22;14557;0.000;0.000;2024-02-23T06:41:10;19.50;53.20
27016;DHT22;14557;0.000;0.000;2024-02-23T06:43:36;19.50;53.30
27016;DHT22;14557;0.000;0.000;2024-02-23T06:46:08;19.50;53.30
27016;DHT22;14557;0.000;0.000;2024-02-23T06:48:34;19.50;53.20
27016;DHT22;14557;0.000;0.000;2024-02-23T06:51:00;19.50;53.30
27016;DHT22;14557;0.000;0.000;2024-02-23T06:53:26;19.50;53.30
27016;DHT22;14557;0.000;0.000;2024-02-23T06:55:51;19.50;53.40
27016;DHT22;14557;0.000;0.000;2024-02-23T06:58:17;19.40;53.30
27016;DHT22;14557;0.000;0.000;2024-02-23T07:00:43;19.40;53.30
27016;DHT22;14557;0.000;0.000;2024-02-23T07:03:09;19.40;53.30
27016;DHT22;14557;0.000;0.000;2024-02-23T07:05:35;19.40;53.40
27016;DHT22;14557;0.000;0.000;2024-02-23T07:08:03;19.40;53.50
27016;DHT22;14557;0.000;0.000;2024-02-23T07:10:29;19.40;53.40
27016;DHT22;14557;0.000;0.000;2024-02-23T07:12:54;19.40;53.50
27016;DHT22;14557;0.000;0.000;2024-02-23T07:15:21;19.40;53.50
27016;DHT22;14557;0.000;0.000;2024-02-23T07:17:47;19.40;53.50
27016;DHT22;14557;0.000;0.000;2024-02-23T07:20:13;19.40;53.60
27016;DHT22;14557;0.000;0.000;2024-02-23T07:22:39;19.30;53.60
27016;DHT22;14557;0.000;0.000;2024-02-23T07:25:05;19.30;53.40
27016;DHT22;14557;0.000;0.000;2024-02-23T07:27:31;19.30;53.40
27016;DHT22;14557;0.000;0.000;2024-02-23T07:29:57;19.30;53.60
27016;DHT22;14557;0.000;0.000;2024-02-23T07:32:23;19.30;53.50
27016;DHT22;14557;0.000;0.000;2024-02-23T07:34:48;19.30;53.50
27016;DHT22;14557;0.000;0.000;2024-02-23T07:37:15;19.30;53.40
27016;DHT22;14557;0.000;0.000;2024-02-23T07:39:40;19.30;53.40
27016;DHT22;14557;0.000;0.000;2024-02-23T07:42:06;19.30;53.40
27016;DHT22;14557;0.000;0.000;2024-02-23T07:44:33;19.30;53.40
27016;DHT22;14557;0.000;0.000;2024-02-23T07:46:59;19.30;53.20
27016;DHT22;14557;0.000;0.000;2024-02-23T07:49:25;19.30;53.40
27016;DHT22;14557;0.000;0.000;2024-02-23T07:51:52;19.30;53.20
27016;DHT22;14557;0.000;0.000;2024-02-23T07:54:18;19.20;53.20
27016;DHT22;14557;0.000;0.000;2024-02-23T07:56:43;19.30;53.10
27016;DHT22;14557;0.000;0.000;2024-02-23T07:59:09;19.30;54.00
27016;DHT22;14557;0.000;0.000;2024-02-23T08:01:35;19.30;57.60
27016;DHT22;14557;0.000;0.000;2024-02-23T08:04:00;19.30;57.70
27016;DHT22;14557;0.000;0.000;2024-02-23T08:06:26;19.30;59.10
27016;DHT22;14557;0.000;0.000;2024-02-23T08:08:51;19.30;58.00
27016;DHT22;14557;0.000;0.000;2024-02-23T08:11:19;19.30;56.80
27016;DHT22;14557;0.000;0.000;2024-02-23T08:13:44;19.30;56.20
27016;DHT22;14557;0.000;0.000;2024-02-23T08:16:10;19.30;56.00
27016;DHT22;14557;0.000;0.000;2024-02-23T08:18:36;19.40;56.60
27016;DHT22;14557;0.000;0.000;2024-02-23T08:21:03;19.40;58.80
27016;DHT22;14557;0.000;0.000;2024-02-23T08:23:31;19.50;58.00
27016;DHT22;14557;0.000;0.000;2024-02-23T08:25:56;19.60;57.70
27016;DHT22;14557;0.000;0.000;2024-02-23T08:28:23;19.70;57.50
27016;DHT22;14557;0.000;0.000;2024-02-23T08:30:49;19.60;57.30
27016;DHT22;14557;0.000;0.000;2024-02-23T08:33:15;19.80;58.30
27016;DHT22;14557;0.000;0.000;2024-02-23T08:35:40;19.90;60.70
27016;DHT22;14557;0.000;0.000;2024-02-23T08:38:06;19.90;57.50
27016;DHT22;14557;0.000;0.000;2024-02-23T08:40:32;20.00;57.00
27016;DHT22;14557;0.000;0.000;2024-02-23T08:42:58;19.90;56.20
27016;DHT22;14557;0.000;0.000;2024-02-23T08:45:23;19.90;55.70
27016;DHT22;14557;0.000;0.000;2024-02-23T08:47:49;19.90;55.70
27016;DHT22;14557;0.000;0.000;2024-02-23T08:50:15;19.90;55.50
27016;DHT22;14557;0.000;0.000;2024-02-23T08:52:40;19.90;55.50
27016;DHT22;14557;0.000;0.000;2024-02-23T08:55:06;19.90;55.70
27016;DHT22;14557;0.000;0.000;2024-02-23T08:57:32;19.90;55.70
27016;DHT22;14557;0.000;0.000;2024-02-23T08:59:58;19.90;55.50
27016;DHT22;14557;0.000;0.000;2024-02-23T09:02:26;19.90;55.30
27016;DHT22;14557;0.000;0.000;2024-02-23T09:04:52;19.90;54.90
27016;DHT22;14557;0.000;0.000;2024-02-23T09:07:17;19.90;55.30
27016;DHT22;14557;0.000;0.000;2024-02-23T09:09:46;20.00;54.40
27016;DHT22;14557;0.000;0.000;2024-02-23T09:12:12;20.00;54.10
27016;DHT22;14557;0.000;0.000;2024-02-23T09:14:40;20.00;54.00
27016;DHT22;14557;0.000;0.000;2024-02-23T09:17:06;20.00;54.00
27016;DHT22;14557;0.000;0.000;2024-02-23T09:19:34;20.00;53.90
27016;DHT22;14557;0.000;0.000;2024-02-23T09:22:00;20.00;55.00
27016;DHT22;14557;0.000;0.000;2024-02-23T09:24:27;20.00;59.30
27016;DHT22;14557;0.000;0.000;2024-02-23T09:26:52;20.00;58.70
27016;DHT22;14557;0.000;0.000;2024-02-23T09:29:18;20.00;57.60
27016;DHT22;14557;0.000;0.000;2024-02-23T09:31:44;20.00;57.40
27016;DHT22;14557;0.000;0.000;2024-02-23T09:34:10;20.00;56.30
27016;DHT22;14557;0.000;0.000;2024-02-23T09:36:35;20.10;55.80
27016;DHT22;14557;0.000;0.000;2024-02-23T09:39:01;20.00;56.10
27016;DHT22;14557;0.000;0.000;2024-02-23T09:41:28;20.10;56.00
27016;DHT22;14557;0.000;0.000;2024-02-23T09:43:53;20.10;56.00
27016;DHT22;14557;0.000;0.000;2024-02-23T09:46:22;20.10;56.20
27016;DHT22;14557;0.000;0.000;2024-02-23T09:48:48;20.10;56.30
27016;DHT22;14557;0.000;0.000;2024-02-23T09:51:15;20.10;56.20
27016;DHT22;14557;0.000;0.000;2024-02-23T09:53:41;20.10;56.00
27016;DHT22;14557;0.000;0.000;2024-02-23T09:56:08;20.20;56.50
27016;DHT22;14557;0.000;0.000;2024-02-23T09:58:34;20.20;55.50
27016;DHT22;14557;0.000;0.000;2024-02-23T10:01:04;20.30;55.60
27016;DHT22;14557;0.000;0.000;2024-02-23T10:03:30;20.30;54.70
27016;DHT22;14557;0.000;0.000;2024-02-23T10:05:59;20.30;54.30
27016;DHT22;14557;0.000;0.000;2024-02-23T10:08:28;20.30;54.10
27016;DHT22;14557;0.000;0.000;2024-02-23T10:10:54;20.30;54.00
27016;DHT22;14557;0.000;0.000;2024-02-23T10:13:22;20.30;54.00
27016;DHT22;14557;0.000;0.000;2024-02-23T10:15:48;20.30;54.00
27016;DHT22;14557;0.000;0.000;2024-02-23T10:18:13;20.30;53.70
27016;DHT22;14557;0.000;0.000;2024-02-23T10:20:40;20.40;53.70
27016;DHT22;14557;0.000;0.000;2024-02-23T10:23:07;20.40;53.60
27016;DHT22;14557;0.000;0.000;2024-02-23T10:25:35;20.50;53.40
27016;DHT22;14557;0.000;0.000;2024-02-23T10:28:04;20.60;53.40
27016;DHT22;14557;0.000;0.000;2024-02-23T10:30:30;20.60;53.70
27016;DHT22;14557;0.000;0.000;2024-02-23T10:32:56;20.60;52.90
27016;DHT22;14557;0.000;0.000;2024-02-23T10:35:23;20.60;52.80
27016;DHT22;14557;0.000;0.000;2024-02-23T10:37:49;20.60;52.80
27016;DHT22;14557;0.000;0.000;2024-02-23T10:40:19;20.60;52.40
27016;DHT22;14557;0.000;0.000;2024-02-23T10:42:45;20.70;52.20
27016;DHT22;14557;0.000;0.000;2024-02-23T10:45:17;20.70;52.10
27016;DHT22;14557;0.000;0.000;2024-02-23T10:47:42;20.80;52.50
27016;DHT22;14557;0.000;0.000;2024-02-23T10:50:08;20.80;53.40
27016;DHT22;14557;0.000;0.000;2024-02-23T10:52:34;20.80;53.70
27016;DHT22;14557;0.000;0.000;2024-02-23T10:55:00;20.80;52.70
27016;DHT22;14557;0.000;0.000;2024-02-23T10:57:28;20.70;52.50
27016;DHT22;14557;0.000;0.000;2024-02-23T10:59:54;20.70;52.30
27016;DHT22;14557;0.000;0.000;2024-02-23T11:02:20;20.70;52.30
27016;DHT22;14557;0.000;0.000;2024-02-23T11:04:47;20.70;52.20
27016;DHT22;14557;0.000;0.000;2024-02-23T11:07:16;20.70;52.20
27016;DHT22;14557;0.000;0.000;2024-02-23T11:09:41;20.70;52.20
27016;DHT22;14557;0.000;0.000;2024-02-23T11:12:08;20.70;52.10
27016;DHT22;14557;0.000;0.000;2024-02-23T11:14:35;20.60;52.20
27016;DHT22;14557;0.000;0.000;2024-02-23T11:17:02;20.60;52.10
27016;DHT22;14557;0.000;0.000;2024-02-23T11:19:35;20.60;52.10
27016;DHT22;14557;0.000;0.000;2024-02-23T11:22:01;20.60;52.10
27016;DHT22;14557;0.000;0.000;2024-02-23T11:24:30;20.60;52.10
27016;DHT22;14557;0.000;0.000;2024-02-23T11:26:56;20.60;52.20
27016;DHT22;14557;0.000;0.000;2024-02-23T11:29:22;20.60;52.30
27016;DHT22;14557;0.000;0.000;2024-02-23T11:31:51;20.60;52.40
27016;DHT22;14557;0.000;0.000;2024-02-23T11:34:21;20.60;52.30
27016;DHT22;14557;0.000;0.000;2024-02-23T11:36:50;20.60;52.30
27016;DHT22;14557;0.000;0.000;2024-02-23T11:39:15;20.60;52.20
27016;DHT22;14557;0.000;0.000;2024-02-23T11:41:42;20.60;52.30
27016;DHT22;14557;0.000;0.000;2024-02-23T11:44:08;20.60;52.30
27016;DHT22;14557;0.000;0.000;2024-02-23T11:46:34;20.60;52.10
27016;DHT22;14557;0.000;0.000;2024-02-23T11:49:00;20.60;52.10
27016;DHT22;14557;0.000;0.000;2024-02-23T11:51:25;20.60;52.10
27016;DHT22;14557;0.000;0.000;2024-02-23T11:53:55;20.60;52.20
27016;DHT22;14557;0.000;0.000;2024-02-23T11:56:23;20.60;52.20
27016;DHT22;14557;0.000;0.000;2024-02-23T11:58:48;20.60;52.10
27016;DHT22;14557;0.000;0.000;2024-02-23T12:01:14;20.60;52.10
27016;DHT22;14557;0.000;0.000;2024-02-23T12:03:40;20.60;52.20
27016;DHT22;14557;0.000;0.000;2024-02-23T12:06:06;20.50;52.10
27016;DHT22;14557;0.000;0.000;2024-02-23T12:08:32;20.50;52.20
27016;DHT22;14557;0.000;0.000;2024-02-23T12:11:08;20.50;52.80
27016;DHT22;14557;0.000;0.000;2024-02-23T12:13:34;20.50;52.10
27016;DHT22;14557;0.000;0.000;2024-02-23T12:16:00;20.50;52.30
27016;DHT22;14557;0.000;0.000;2024-02-23T12:18:26;20.50;52.30
27016;DHT22;14557;0.000;0.000;2024-02-23T12:20:52;20.40;52.20
27016;DHT22;14557;0.000;0.000;2024-02-23T12:23:17;20.50;52.20
27016;DHT22;14557;0.000;0.000;2024-02-23T12:25:53;20.50;52.20
27016;DHT22;14557;0.000;0.000;2024-02-23T12:28:19;20.50;52.30
27016;DHT22;14557;0.000;0.000;2024-02-23T12:30:45;20.50;52.30
27016;DHT22;14557;0.000;0.000;2024-02-23T12:33:12;20.50;52.20
27016;DHT22;14557;0.000;0.000;2024-02-23T12:35:40;20.50;52.20
27016;DHT22;14557;0.000;0.000;2024-02-23T12:38:06;20.50;52.20
27016;DHT22;14557;0.000;0.000;2024-02-23T12:40:32;20.50;52.10
27016;DHT22;14557;0.000;0.000;2024-02-23T12:42:58;20.50;52.10
27016;DHT22;14557;0.000;0.000;2024-02-23T12:45:23;20.50;52.00
27016;DHT22;14557;0.000;0.000;2024-02-23T12:47:49;20.50;52.00
27016;DHT22;14557;0.000;0.000;2024-02-23T12:50:15;20.60;52.00
27016;DHT22;14557;0.000;0.000;2024-02-23T12:52:40;20.60;51.90
27016;DHT22;14557;0.000;0.000;2024-02-23T12:55:06;20.60;51.90
27016;DHT22;14557;0.000;0.000;2024-02-23T12:57:32;20.70;51.90
27016;DHT22;14557;0.000;0.000;2024-02-23T12:59:57;20.70;51.80
27016;DHT22;14557;0.000;0.000;2024-02-23T13:02:23;20.70;52.20
27016;DHT22;14557;0.000;0.000;2024-02-23T13:04:49;20.70;52.00
27016;DHT22;14557;0.000;0.000;2024-02-23T13:07:15;20.70;52.00
27016;DHT22;14557;0.000;0.000;2024-02-23T13:09:42;20.80;52.50
27016;DHT22;14557;0.000;0.000;2024-02-23T13:12:07;20.80;52.40
27016;DHT22;14557;0.000;0.000;2024-02-23T13:14:33;20.80;52.40
27016;DHT22;14557;0.000;0.000;2024-02-23T13:16:58;20.80;52.30
27016;DHT22;14557;0.000;0.000;2024-02-23T13:19:24;20.80;52.40
27016;DHT22;14557;0.000;0.000;2024-02-23T13:21:50;20.80;52.30
27016;DHT22;14557;0.000;0.000;2024-02-23T13:24:15;20.90;56.60
27016;DHT22;14557;0.000;0.000;2024-02-23T13:26:41;20.90;56.30
27016;DHT22;14557;0.000;0.000;2024-02-23T13:29:07;20.90;53.10
27016;DHT22;14557;0.000;0.000;2024-02-23T13:31:33;20.90;52.60
27016;DHT22;14557;0.000;0.000;2024-02-23T13:33:58;20.90;52.50
27016;DHT22;14557;0.000;0.000;2024-02-23T13:36:24;20.90;52.70
27016;DHT22;14557;0.000;0.000;2024-02-23T13:38:49;20.90;52.70
27016;DHT22;14557;0.000;0.000;2024-02-23T13:41:16;20.90;52.40
27016;DHT22;14557;0.000;0.000;2024-02-23T13:43:42;20.90;52.30
27016;DHT22;14557;0.000;0.000;2024-02-23T13:46:08;20.80;52.30
27016;DHT22;14557;0.000;0.000;2024-02-23T13:48:33;20.90;53.50
27016;DHT22;14557;0.000;0.000;2024-02-23T13:50:59;20.90;52.60
27016;DHT22;14557;0.000;0.000;2024-02-23T13:53:31;20.80;52.50
27016;DHT22;14557;0.000;0.000;2024-02-23T13:55:58;20.90;52.50
27016;DHT22;14557;0.000;0.000;2024-02-23T13:58:24;20.80;52.30
27016;DHT22;14557;0.000;0.000;2024-02-23T14:00:49;20.80;52.20
27016;DHT22;14557;0.000;0.000;2024-02-23T14:03:18;20.90;52.00
27016;DHT22;14557;0.000;0.000;2024-02-23T14:05:44;20.90;52.20
27016;DHT22;14557;0.000;0.000;2024-02-23T14:08:11;20.80;52.10
27016;DHT22;14557;0.000;0.000;2024-02-23T14:10:37;20.80;52.20
27016;DHT22;14557;0.000;0.000;2024-02-23T14:13:02;20.80;52.10
27016;DHT22;14557;0.000;0.000;2024-02-23T14:15:28;20.80;51.90
27016;DHT22;14557;0.000;0.000;2024-02-23T14:17:53;20.80;52.00
27016;DHT22;14557;0.000;0.000;2024-02-23T14:20:19;20.80;51.70
27016;DHT22;14557;0.000;0.000;2024-02-23T14:22:45;20.80;51.70
27016;DHT22;14557;0.000;0.000;2024-02-23T14:25:11;20.80;51.90
27016;DHT22;14557;0.000;0.000;2024-02-23T14:27:36;20.90;53.10
27016;DHT22;14557;0.000;0.000;2024-02-23T14:30:02;21.10;61.50
27016;DHT22;14557;0.000;0.000;2024-02-23T14:32:28;21.10;55.40
27016;DHT22;14557;0.000;0.000;2024-02-23T14:34:53;21.10;53.80
27016;DHT22;14557;0.000;0.000;2024-02-23T14:37:20;21.10;54.40
27016;DHT22;14557;0.000;0.000;2024-02-23T14:39:46;21.40;53.40
27016;DHT22;14557;0.000;0.000;2024-02-23T14:42:12;21.50;52.70
27016;DHT22;14557;0.000;0.000;2024-02-23T14:44:37;21.50;52.40
27016;DHT22;14557;0.000;0.000;2024-02-23T14:47:03;21.60;52.10
27016;DHT22;14557;0.000;0.000;2024-02-23T14:49:31;21.70;51.90
27016;DHT22;14557;0.000;0.000;2024-02-23T14:51:56;21.60;51.70
27016;DHT22;14557;0.000;0.000;2024-02-23T14:54:22;21.70;51.70
27016;DHT22;14557;0.000;0.000;2024-02-23T14:56:47;21.70;51.20
27016;DHT22;14557;0.000;0.000;2024-02-23T14:59:13;21.70;51.00
27016;DHT22;14557;0.000;0.000;2024-02-23T15:01:39;21.70;51.00
27016;DHT22;14557;0.000;0.000;2024-02-23T15:04:07;21.70;50.50
27016;DHT22;14557;0.000;0.000;2024-02-23T15:06:32;21.80;50.40
27016;DHT22;14557;0.000;0.000;2024-02-23T15:08:58;21.90;50.20
27016;DHT22;14557;0.000;0.000;2024-02-23T15:11:24;21.90;50.20
27016;DHT22;14557;0.000;0.000;2024-02-23T15:13:49;22.00;49.80
27016;DHT22;14557;0.000;0.000;2024-02-23T15:16:17;22.00;49.80
27016;DHT22;14557;0.000;0.000;2024-02-23T15:18:42;22.10;49.80
27016;DHT22;14557;0.000;0.000;2024-02-23T15:21:08;22.10;49.40
27016;DHT22;14557;0.000;0.000;2024-02-23T15:23:34;22.10;49.30
27016;DHT22;14557;0.000;0.000;2024-02-23T15:25:59;22.20;49.30
27016;DHT22;14557;0.000;0.000;2024-02-23T15:28:25;22.20;49.30
27016;DHT22;14557;0.000;0.000;2024-02-23T15:30:50;22.20;49.30
27016;DHT22;14557;0.000;0.000;2024-02-23T15:33:21;22.20;49.10
27016;DHT22;14557;0.000;0.000;2024-02-23T15:35:46;22.20;49.10
27016;DHT22;14557;0.000;0.000;2024-02-23T15:38:12;22.20;49.20